sensor_id;sensor_type;location;lat;lon;timestamp;temperature;humidity
37460;DHT22;23318;50.966;5.284;2024-03-17T00:01:53;8.40;99.90
37460;DHT22;23318;50.966;5.284;2024-03-17T00:04:18;8.50;99.90
37460;DHT22;23318;50.966;5.284;2024-03-17T00:06:45;8.60;99.90
37460;DHT22;23318;50.966;5.284;2024-03-17T00:09:11;8.70;99.90
37460;DHT22;23318;50.966;5.284;2024-03-17T00:11:36;8.60;99.90
37460;DHT22;23318;50.966;5.284;2024-03-17T00:14:02;8.50;99.90
37460;DHT22;23318;50.966;5.284;2024-03-17T00:16:28;8.00;99.90
37460;DHT22;23318;50.966;5.284;2024-03-17T00:18:54;7.80;99.90
37460;DHT22;23318;50.966;5.284;2024-03-17T00:21:21;8.10;99.90
37460;DHT22;23318;50.966;5.284;2024-03-17T00:23:49;8.20;99.90
37460;DHT22;23318;50.966;5.284;2024-03-17T00:26:16;8.30;99.90
37460;DHT22;23318;50.966;5.284;2024-03-17T00:28:42;8.20;99.90
37460;DHT22;23318;50.966;5.284;2024-03-17T00:31:08;8.20;99.90
37460;DHT22;23318;50.966;5.284;2024-03-17T00:33:35;8.00;99.90
37460;DHT22;23318;50.966;5.284;2024-03-17T00:36:01;8.00;99.90
37460;DHT22;23318;50.966;5.284;2024-03-17T00:38:27;8.00;99.90
37460;DHT22;23318;50.966;5.284;2024-03-17T00:40:52;8.10;99.90
37460;DHT22;23318;50.966;5.284;2024-03-17T00:43:18;7.90;99.90
37460;DHT22;23318;50.966;5.284;2024-03-17T00:45:51;7.90;99.90
37460;DHT22;23318;50.966;5.284;2024-03-17T00:48:17;7.80;99.90
37460;DHT22;23318;50.966;5.284;2024-03-17T00:50:44;7.70;99.90
37460;DHT22;23318;50.966;5.284;2024-03-17T00:53:11;7.70;99.90
37460;DHT22;23318;50.966;5.284;2024-03-17T00:55:37;7.80;99.90
37460;DHT22;23318;50.966;5.284;2024-03-17T00:58:03;7.80;99.90
37460;DHT22;23318;50.966;5.284;2024-03-17T01:00:29;7.70;99.90
37460;DHT22;23318;50.966;5.284;2024-03-17T01:02:55;7.50;99.90
37460;DHT22;23318;50.966;5.284;2024-03-17T01:05:21;7.50;99.90
37460;DHT22;23318;50.966;5.284;2024-03-17T01:07:47;7.50;99.90
37460;DHT22;23318;50.966;5.284;2024-03-17T01:10:14;7.40;99.90
37460;DHT22;23318;50.966;5.284;2024-03-17T01:12:40;7.30;99.90
37460;DHT22;23318;50.966;5.284;2024-03-17T01:15:06;7.30;99.90
37460;DHT22;23318;50.966;5.284;2024-03-17T01:17:32;7.30;99.90
37460;DHT22;23318;50.966;5.284;2024-03-17T01:19:58;7.30;99.90
37460;DHT22;23318;50.966;5.284;2024-03-17T01:22:23;7.40;99.90
37460;DHT22;23318;50.966;5.284;2024-03-17T01:24:49;7.50;99.90
37460;DHT22;23318;50.966;5.284;2024-03-17T01:27:15;7.60;99.90
37460;DHT22;23318;50.966;5.284;2024-03-17T01:29:42;7.70;99.90
37460;DHT22;23318;50.966;5.284;2024-03-17T01:32:09;7.80;99.90
37460;DHT22;23318;50.966;5.284;2024-03-17T01:34:36;7.90;99.90
37460;DHT22;23318;50.966;5.284;2024-03-17T01:37:02;8.00;99.90
37460;DHT22;23318;50.966;5.284;2024-03-17T01:39:28;8.00;99.90
37460;DHT22;23318;50.966;5.284;2024-03-17T01:41:53;8.10;99.90
37460;DHT22;23318;50.966;5.284;2024-03-17T01:44:28;8.20;99.90
37460;DHT22;23318;50.966;5.284;2024-03-17T01:46:57;8.30;99.90
37460;DHT22;23318;50.966;5.284;2024-03-17T01:49:25;8.30;99.90
37460;DHT22;23318;50.966;5.284;2024-03-17T01:51:52;8.30;99.90
37460;DHT22;23318;50.966;5.284;2024-03-17T01:54:18;8.40;99.90
37460;DHT22;23318;50.966;5.284;2024-03-17T01:56:45;8.40;99.90
37460;DHT22;23318;50.966;5.284;2024-03-17T01:59:11;8.50;99.90
37460;DHT22;23318;50.966;5.284;2024-03-17T02:01:37;8.60;99.90
37460;DHT22;23318;50.966;5.284;2024-03-17T02:04:04;8.60;99.90
37460;DHT22;23318;50.966;5.284;2024-03-17T02:06:30;8.70;99.90
37460;DHT22;23318;50.966;5.284;2024-03-17T02:08:56;8.70;99.90
37460;DHT22;23318;50.966;5.284;2024-03-17T02:11:30;8.70;99.90
37460;DHT22;23318;50.966;5.284;2024-03-17T02:13:57;8.70;99.90
37460;DHT22;23318;50.966;5.284;2024-03-17T02:16:23;8.80;99.90
37460;DHT22;23318;50.966;5.284;2024-03-17T02:18:53;8.80;99.90
37460;DHT22;23318;50.966;5.284;2024-03-17T02:21:26;8.90;99.90
37460;DHT22;23318;50.966;5.284;2024-03-17T02:23:55;8.90;99.90
37460;DHT22;23318;50.966;5.284;2024-03-17T02:26:22;8.70;99.90
37460;DHT22;23318;50.966;5.284;2024-03-17T02:28:48;8.70;99.90
37460;DHT22;23318;50.966;5.284;2024-03-17T02:31:16;8.80;99.90
37460;DHT22;23318;50.966;5.284;2024-03-17T02:33:42;8.80;99.90
37460;DHT22;23318;50.966;5.284;2024-03-17T02:36:09;8.90;99.90
37460;DHT22;23318;50.966;5.284;2024-03-17T02:38:38;8.90;99.90
37460;DHT22;23318;50.966;5.284;2024-03-17T02:41:22;9.00;99.90
37460;DHT22;23318;50.966;5.284;2024-03-17T02:43:49;9.00;99.90
37460;DHT22;23318;50.966;5.284;2024-03-17T02:46:16;9.00;99.90
37460;DHT22;23318;50.966;5.284;2024-03-17T02:48:47;8.90;99.90
37460;DHT22;23318;50.966;5.284;2024-03-17T02:51:14;9.00;99.90
37460;DHT22;23318;50.966;5.284;2024-03-17T02:53:44;9.00;99.90
37460;DHT22;23318;50.966;5.284;2024-03-17T02:56:13;8.90;99.90
37460;DHT22;23318;50.966;5.284;2024-03-17T02:58:42;8.90;99.90
37460;DHT22;23318;50.966;5.284;2024-03-17T03:01:08;8.80;99.90
37460;DHT22;23318;50.966;5.284;2024-03-17T03:03:35;8.70;99.90
37460;DHT22;23318;50.966;5.284;2024-03-17T03:06:02;8.80;99.90
37460;DHT22;23318;50.966;5.284;2024-03-17T03:08:32;8.70;99.90
37460;DHT22;23318;50.966;5.284;2024-03-17T03:10:59;8.60;99.90
37460;DHT22;23318;50.966;5.284;2024-03-17T03:13:25;8.60;99.90
37460;DHT22;23318;50.966;5.284;2024-03-17T03:15:51;8.60;99.90
37460;DHT22;23318;50.966;5.284;2024-03-17T03:18:17;8.40;99.90
37460;DHT22;23318;50.966;5.284;2024-03-17T03:20:42;8.30;99.90
37460;DHT22;23318;50.966;5.284;2024-03-17T03:23:09;8.00;99.90
37460;DHT22;23318;50.966;5.284;2024-03-17T03:25:35;8.10;99.90
37460;DHT22;23318;50.966;5.284;2024-03-17T03:28:01;8.00;99.90
37460;DHT22;23318;50.966;5.284;2024-03-17T03:30:27;8.00;99.90
37460;DHT22;23318;50.966;5.284;2024-03-17T03:32:55;8.00;99.90
37460;DHT22;23318;50.966;5.284;2024-03-17T03:35:20;7.90;99.90
37460;DHT22;23318;50.966;5.284;2024-03-17T03:37:46;7.80;99.90
37460;DHT22;23318;50.966;5.284;2024-03-17T03:40:12;7.90;99.90
37460;DHT22;23318;50.966;5.284;2024-03-17T03:42:45;7.90;99.90
37460;DHT22;23318;50.966;5.284;2024-03-17T03:45:11;7.80;99.90
37460;DHT22;23318;50.966;5.284;2024-03-17T03:47:40;7.70;99.90
37460;DHT22;23318;50.966;5.284;2024-03-17T03:50:10;7.70;99.90
37460;DHT22;23318;50.966;5.284;2024-03-17T03:52:38;7.90;99.90
37460;DHT22;23318;50.966;5.284;2024-03-17T03:55:07;7.90;99.90
37460;DHT22;23318;50.966;5.284;2024-03-17T03:57:36;8.00;99.90
37460;DHT22;23318;50.966;5.284;2024-03-17T04:00:03;8.00;99.90
37460;DHT22;23318;50.966;5.284;2024-03-17T04:02:39;7.90;99.90
37460;DHT22;23318;50.966;5.284;2024-03-17T04:05:05;8.00;99.90
37460;DHT22;23318;50.966;5.284;2024-03-17T04:07:31;8.10;99.90
37460;DHT22;23318;50.966;5.284;2024-03-17T04:09:57;8.20;99.90
37460;DHT22;23318;50.966;5.284;2024-03-17T04:12:24;8.30;99.90
37460;DHT22;23318;50.966;5.284;2024-03-17T04:14:50;8.10;99.90
37460;DHT22;23318;50.966;5.284;2024-03-17T04:17:21;8.20;99.90
37460;DHT22;23318;50.966;5.284;2024-03-17T04:19:48;8.30;99.90
37460;DHT22;23318;50.966;5.284;2024-03-17T04:22:15;8.30;99.90
37460;DHT22;23318;50.966;5.284;2024-03-17T04:24:40;8.30;99.90
37460;DHT22;23318;50.966;5.284;2024-03-17T04:27:06;8.30;99.90
37460;DHT22;23318;50.966;5.284;2024-03-17T04:29:32;8.20;99.90
37460;DHT22;23318;50.966;5.284;2024-03-17T04:31:57;8.20;99.90
37460;DHT22;23318;50.966;5.284;2024-03-17T04:34:23;8.30;99.90
37460;DHT22;23318;50.966;5.284;2024-03-17T04:36:48;8.40;99.90
37460;DHT22;23318;50.966;5.284;2024-03-17T04:39:15;8.50;99.90
37460;DHT22;23318;50.966;5.284;2024-03-17T04:41:40;8.40;99.90
37460;DHT22;23318;50.966;5.284;2024-03-17T04:44:08;8.50;99.90
37460;DHT22;23318;50.966;5.284;2024-03-17T04:46:34;8.30;99.90
37460;DHT22;23318;50.966;5.284;2024-03-17T04:49:00;8.40;99.90
37460;DHT22;23318;50.966;5.284;2024-03-17T04:51:29;8.40;99.90
37460;DHT22;23318;50.966;5.284;2024-03-17T04:53:54;8.30;99.90
37460;DHT22;23318;50.966;5.284;2024-03-17T04:56:21;8.30;99.90
37460;DHT22;23318;50.966;5.284;2024-03-17T04:58:46;8.20;99.90
37460;DHT22;23318;50.966;5.284;2024-03-17T05:01:12;8.20;99.90
37460;DHT22;23318;50.966;5.284;2024-03-17T05:03:38;8.20;99.90
37460;DHT22;23318;50.966;5.284;2024-03-17T05:06:05;8.30;99.90
37460;DHT22;23318;50.966;5.284;2024-03-17T05:08:32;8.20;99.90
37460;DHT22;23318;50.966;5.284;2024-03-17T05:10:59;8.20;99.90
37460;DHT22;23318;50.966;5.284;2024-03-17T05:13:27;8.20;99.90
37460;DHT22;23318;50.966;5.284;2024-03-17T05:15:54;8.30;99.90
37460;DHT22;23318;50.966;5.284;2024-03-17T05:18:19;8.40;99.90
37460;DHT22;23318;50.966;5.284;2024-03-17T05:20:46;8.30;99.90
37460;DHT22;23318;50.966;5.284;2024-03-17T05:23:14;8.20;99.90
37460;DHT22;23318;50.966;5.284;2024-03-17T05:25:40;8.00;99.90
37460;DHT22;23318;50.966;5.284;2024-03-17T05:28:06;7.90;99.90
37460;DHT22;23318;50.966;5.284;2024-03-17T05:30:31;8.00;99.90
37460;DHT22;23318;50.966;5.284;2024-03-17T05:32:57;7.90;99.90
37460;DHT22;23318;50.966;5.284;2024-03-17T05:35:23;7.70;99.90
37460;DHT22;23318;50.966;5.284;2024-03-17T05:37:50;7.60;99.90
37460;DHT22;23318;50.966;5.284;2024-03-17T05:40:16;7.70;99.90
37460;DHT22;23318;50.966;5.284;2024-03-17T05:42:42;7.70;99.90
37460;DHT22;23318;50.966;5.284;2024-03-17T05:45:09;7.70;99.90
37460;DHT22;23318;50.966;5.284;2024-03-17T05:47:38;7.50;99.90
37460;DHT22;23318;50.966;5.284;2024-03-17T05:50:04;7.50;99.90
37460;DHT22;23318;50.966;5.284;2024-03-17T05:52:30;7.50;99.90
37460;DHT22;23318;50.966;5.284;2024-03-17T05:54:56;7.40;99.90
37460;DHT22;23318;50.966;5.284;2024-03-17T05:57:22;7.60;99.90
37460;DHT22;23318;50.966;5.284;2024-03-17T05:59:49;7.60;99.90
37460;DHT22;23318;50.966;5.284;2024-03-17T06:02:15;7.50;99.90
37460;DHT22;23318;50.966;5.284;2024-03-17T06:04:41;7.50;99.90
37460;DHT22;23318;50.966;5.284;2024-03-17T06:07:07;7.60;99.90
37460;DHT22;23318;50.966;5.284;2024-03-17T06:09:33;7.70;99.90
37460;DHT22;23318;50.966;5.284;2024-03-17T06:11:58;7.90;99.90
37460;DHT22;23318;50.966;5.284;2024-03-17T06:14:24;7.90;99.90
37460;DHT22;23318;50.966;5.284;2024-03-17T06:16:50;7.90;99.90
37460;DHT22;23318;50.966;5.284;2024-03-17T06:19:15;8.00;99.90
37460;DHT22;23318;50.966;5.284;2024-03-17T06:21:41;8.10;99.90
37460;DHT22;23318;50.966;5.284;2024-03-17T06:24:07;8.30;99.90
37460;DHT22;23318;50.966;5.284;2024-03-17T06:26:33;8.30;99.90
37460;DHT22;23318;50.966;5.284;2024-03-17T06:29:02;8.40;99.90
37460;DHT22;23318;50.966;5.284;2024-03-17T06:31:28;8.50;99.90
37460;DHT22;23318;50.966;5.284;2024-03-17T06:33:54;8.70;99.90
37460;DHT22;23318;50.966;5.284;2024-03-17T06:36:19;8.80;99.90
37460;DHT22;23318;50.966;5.284;2024-03-17T06:38:45;8.80;99.90
37460;DHT22;23318;50.966;5.284;2024-03-17T06:41:10;8.90;99.90
37460;DHT22;23318;50.966;5.284;2024-03-17T06:43:37;8.80;99.90
37460;DHT22;23318;50.966;5.284;2024-03-17T06:46:04;9.00;99.90
37460;DHT22;23318;50.966;5.284;2024-03-17T06:48:30;9.20;99.90
37460;DHT22;23318;50.966;5.284;2024-03-17T06:50:56;9.20;99.90
37460;DHT22;23318;50.966;5.284;2024-03-17T06:53:22;9.10;99.90
37460;DHT22;23318;50.966;5.284;2024-03-17T06:55:58;9.10;99.90
37460;DHT22;23318;50.966;5.284;2024-03-17T06:58:25;9.30;99.90
37460;DHT22;23318;50.966;5.284;2024-03-17T07:00:56;9.50;99.90
37460;DHT22;23318;50.966;5.284;2024-03-17T07:03:26;9.50;99.90
37460;DHT22;23318;50.966;5.284;2024-03-17T07:05:56;9.60;99.90
37460;DHT22;23318;50.966;5.284;2024-03-17T07:08:23;9.70;99.90
37460;DHT22;23318;50.966;5.284;2024-03-17T07:11:05;9.80;99.90
37460;DHT22;23318;50.966;5.284;2024-03-17T07:13:38;9.90;99.90
37460;DHT22;23318;50.966;5.284;2024-03-17T07:16:07;10.10;99.90
37460;DHT22;23318;50.966;5.284;2024-03-17T07:18:34;10.20;99.90
37460;DHT22;23318;50.966;5.284;2024-03-17T07:21:01;10.40;99.90
37460;DHT22;23318;50.966;5.284;2024-03-17T07:23:28;10.50;99.90
37460;DHT22;23318;50.966;5.284;2024-03-17T07:25:54;10.70;99.90
37460;DHT22;23318;50.966;5.284;2024-03-17T07:28:20;10.90;99.90
37460;DHT22;23318;50.966;5.284;2024-03-17T07:30:50;10.90;99.90
37460;DHT22;23318;50.966;5.284;2024-03-17T07:33:17;10.70;99.90
37460;DHT22;23318;50.966;5.284;2024-03-17T07:35:56;10.80;99.90
37460;DHT22;23318;50.966;5.284;2024-03-17T07:38:29;10.90;99.90
37460;DHT22;23318;50.966;5.284;2024-03-17T07:41:06;11.00;99.90
37460;DHT22;23318;50.966;5.284;2024-03-17T07:43:33;11.10;99.90
37460;DHT22;23318;50.966;5.284;2024-03-17T07:46:03;11.30;99.90
37460;DHT22;23318;50.966;5.284;2024-03-17T07:48:34;11.30;99.90
37460;DHT22;23318;50.966;5.284;2024-03-17T07:51:01;11.10;99.90
37460;DHT22;23318;50.966;5.284;2024-03-17T07:53:29;11.20;99.90
37460;DHT22;23318;50.966;5.284;2024-03-17T07:58:29;11.50;99.90
37460;DHT22;23318;50.966;5.284;2024-03-17T08:00:59;11.30;99.90
37460;DHT22;23318;50.966;5.284;2024-03-17T08:03:25;11.50;99.90
37460;DHT22;23318;50.966;5.284;2024-03-17T08:05:51;11.50;99.90
37460;DHT22;23318;50.966;5.284;2024-03-17T08:08:18;11.30;99.90
37460;DHT22;23318;50.966;5.284;2024-03-17T08:10:44;11.40;99.90
37460;DHT22;23318;50.966;5.284;2024-03-17T08:13:10;11.30;99.90
37460;DHT22;23318;50.966;5.284;2024-03-17T08:15:36;11.30;99.90
37460;DHT22;23318;50.966;5.284;2024-03-17T08:18:03;10.90;99.90
37460;DHT22;23318;50.966;5.284;2024-03-17T08:20:36;11.20;99.90
37460;DHT22;23318;50.966;5.284;2024-03-17T08:23:02;11.10;99.90
37460;DHT22;23318;50.966;5.284;2024-03-17T08:25:28;11.10;99.90
37460;DHT22;23318;50.966;5.284;2024-03-17T08:27:54;11.50;99.90
37460;DHT22;23318;50.966;5.284;2024-03-17T08:30:19;11.70;99.90
37460;DHT22;23318;50.966;5.284;2024-03-17T08:32:45;11.70;99.90
37460;DHT22;23318;50.966;5.284;2024-03-17T08:35:10;12.10;99.90
37460;DHT22;23318;50.966;5.284;2024-03-17T08:37:36;12.00;99.90
37460;DHT22;23318;50.966;5.284;2024-03-17T08:40:02;12.10;99.90
37460;DHT22;23318;50.966;5.284;2024-03-17T08:42:28;12.00;99.90
37460;DHT22;23318;50.966;5.284;2024-03-17T08:44:54;12.00;99.90
37460;DHT22;23318;50.966;5.284;2024-03-17T08:47:19;12.20;99.90
37460;DHT22;23318;50.966;5.284;2024-03-17T08:49:45;11.90;99.90
37460;DHT22;23318;50.966;5.284;2024-03-17T08:52:11;12.10;99.90
37460;DHT22;23318;50.966;5.284;2024-03-17T08:54:37;12.30;99.90
37460;DHT22;23318;50.966;5.284;2024-03-17T08:57:02;11.90;99.90
37460;DHT22;23318;50.966;5.284;2024-03-17T08:59:28;11.60;99.90
37460;DHT22;23318;50.966;5.284;2024-03-17T09:01:54;11.80;99.90
37460;DHT22;23318;50.966;5.284;2024-03-17T09:04:19;12.00;99.90
37460;DHT22;23318;50.966;5.284;2024-03-17T09:06:45;12.20;99.90
37460;DHT22;23318;50.966;5.284;2024-03-17T09:09:11;12.20;99.90
37460;DHT22;23318;50.966;5.284;2024-03-17T09:11:39;12.70;99.90
37460;DHT22;23318;50.966;5.284;2024-03-17T09:14:05;13.10;99.90
37460;DHT22;23318;50.966;5.284;2024-03-17T09:16:30;13.20;99.90
37460;DHT22;23318;50.966;5.284;2024-03-17T09:18:57;13.30;99.90
37460;DHT22;23318;50.966;5.284;2024-03-17T09:21:23;13.20;99.90
37460;DHT22;23318;50.966;5.284;2024-03-17T09:23:49;12.80;99.90
37460;DHT22;23318;50.966;5.284;2024-03-17T09:26:15;12.50;99.90
37460;DHT22;23318;50.966;5.284;2024-03-17T09:28:43;12.20;99.90
37460;DHT22;23318;50.966;5.284;2024-03-17T09:31:10;12.40;99.90
37460;DHT22;23318;50.966;5.284;2024-03-17T09:33:37;12.70;99.90
37460;DHT22;23318;50.966;5.284;2024-03-17T09:36:05;12.70;99.90
37460;DHT22;23318;50.966;5.284;2024-03-17T09:38:32;12.80;99.90
37460;DHT22;23318;50.966;5.284;2024-03-17T09:40:59;13.20;99.90
37460;DHT22;23318;50.966;5.284;2024-03-17T09:43:29;13.50;99.90
37460;DHT22;23318;50.966;5.284;2024-03-17T09:45:57;13.00;99.90
37460;DHT22;23318;50.966;5.284;2024-03-17T09:48:24;13.30;99.90
37460;DHT22;23318;50.966;5.284;2024-03-17T09:50:51;13.50;99.90
37460;DHT22;23318;50.966;5.284;2024-03-17T09:55:58;13.80;99.90
37460;DHT22;23318;50.966;5.284;2024-03-17T09:58:24;13.90;99.90
37460;DHT22;23318;50.966;5.284;2024-03-17T10:00:50;13.80;99.90
37460;DHT22;23318;50.966;5.284;2024-03-17T10:06:11;14.10;99.90
37460;DHT22;23318;50.966;5.284;2024-03-17T10:11:14;13.90;99.90
37460;DHT22;23318;50.966;5.284;2024-03-17T10:13:41;13.80;99.90
37460;DHT22;23318;50.966;5.284;2024-03-17T10:16:27;13.90;99.90
37460;DHT22;23318;50.966;5.284;2024-03-17T10:19:22;14.90;99.90
37460;DHT22;23318;50.966;5.284;2024-03-17T10:21:49;15.20;99.90
37460;DHT22;23318;50.966;5.284;2024-03-17T10:24:25;15.00;99.90
37460;DHT22;23318;50.966;5.284;2024-03-17T10:26:56;14.20;99.90
37460;DHT22;23318;50.966;5.284;2024-03-17T10:29:34;14.20;99.90
37460;DHT22;23318;50.966;5.284;2024-03-17T10:32:14;14.30;99.90
37460;DHT22;23318;50.966;5.284;2024-03-17T10:34:40;14.10;99.90
37460;DHT22;23318;50.966;5.284;2024-03-17T10:37:20;14.20;99.90
37460;DHT22;23318;50.966;5.284;2024-03-17T10:39:51;14.20;99.90
37460;DHT22;23318;50.966;5.284;2024-03-17T10:44:50;14.10;99.90
37460;DHT22;23318;50.966;5.284;2024-03-17T10:47:36;13.80;99.90
37460;DHT22;23318;50.966;5.284;2024-03-17T10:50:02;13.90;99.90
37460;DHT22;23318;50.966;5.284;2024-03-17T10:52:33;13.90;99.90
37460;DHT22;23318;50.966;5.284;2024-03-17T10:55:07;13.70;99.90
37460;DHT22;23318;50.966;5.284;2024-03-17T10:57:39;13.80;99.90
37460;DHT22;23318;50.966;5.284;2024-03-17T11:00:07;13.80;99.90
37460;DHT22;23318;50.966;5.284;2024-03-17T11:02:34;13.90;99.90
37460;DHT22;23318;50.966;5.284;2024-03-17T11:05:25;13.80;99.90
37460;DHT22;23318;50.966;5.284;2024-03-17T11:07:52;13.90;99.90
37460;DHT22;23318;50.966;5.284;2024-03-17T11:10:27;13.90;99.90
37460;DHT22;23318;50.966;5.284;2024-03-17T11:12:57;14.70;99.90
37460;DHT22;23318;50.966;5.284;2024-03-17T11:18:25;15.20;99.90
37460;DHT22;23318;50.966;5.284;2024-03-17T11:20:59;15.40;99.90
37460;DHT22;23318;50.966;5.284;2024-03-17T11:23:28;15.90;99.90
37460;DHT22;23318;50.966;5.284;2024-03-17T11:25:55;16.00;99.90
37460;DHT22;23318;50.966;5.284;2024-03-17T11:33:58;15.80;99.90
37460;DHT22;23318;50.966;5.284;2024-03-17T11:39:07;15.80;99.90
37460;DHT22;23318;50.966;5.284;2024-03-17T11:41:46;15.80;99.90
37460;DHT22;23318;50.966;5.284;2024-03-17T11:47:04;16.10;99.90
37460;DHT22;23318;50.966;5.284;2024-03-17T11:49:34;16.00;99.90
37460;DHT22;23318;50.966;5.284;2024-03-17T11:52:12;15.60;99.90
37460;DHT22;23318;50.966;5.284;2024-03-17T11:54:40;15.70;99.90
37460;DHT22;23318;50.966;5.284;2024-03-17T11:59:34;16.10;99.90
37460;DHT22;23318;50.966;5.284;2024-03-17T12:02:00;16.00;99.90
37460;DHT22;23318;50.966;5.284;2024-03-17T12:04:26;15.80;99.90
37460;DHT22;23318;50.966;5.284;2024-03-17T12:06:57;16.10;99.90
37460;DHT22;23318;50.966;5.284;2024-03-17T12:14:29;17.10;99.90
37460;DHT22;23318;50.966;5.284;2024-03-17T12:16:57;17.20;99.90
37460;DHT22;23318;50.966;5.284;2024-03-17T12:19:24;17.00;99.90
37460;DHT22;23318;50.966;5.284;2024-03-17T12:21:53;17.00;99.90
37460;DHT22;23318;50.966;5.284;2024-03-17T12:24:22;17.50;99.90
37460;DHT22;23318;50.966;5.284;2024-03-17T12:26:49;17.50;99.90
37460;DHT22;23318;50.966;5.284;2024-03-17T12:29:35;17.30;99.90
37460;DHT22;23318;50.966;5.284;2024-03-17T12:32:20;17.00;99.90
37460;DHT22;23318;50.966;5.284;2024-03-17T12:34:57;17.70;99.90
37460;DHT22;23318;50.966;5.284;2024-03-17T12:37:26;17.60;99.90
37460;DHT22;23318;50.966;5.284;2024-03-17T12:40:01;17.70;99.80
37460;DHT22;23318;50.966;5.284;2024-03-17T12:42:28;17.90;99.80
37460;DHT22;23318;50.966;5.284;2024-03-17T12:44:58;18.30;99.60
37460;DHT22;23318;50.966;5.284;2024-03-17T12:47:25;18.50;99.50
37460;DHT22;23318;50.966;5.284;2024-03-17T12:52:31;18.10;98.90
37460;DHT22;23318;50.966;5.284;2024-03-17T12:55:02;18.30;99.10
37460;DHT22;23318;50.966;5.284;2024-03-17T12:57:51;18.60;98.90
37460;DHT22;23318;50.966;5.284;2024-03-17T13:00:43;19.10;98.80
37460;DHT22;23318;50.966;5.284;2024-03-17T13:03:08;19.20;98.30
37460;DHT22;23318;50.966;5.284;2024-03-17T13:05:35;18.80;98.70
37460;DHT22;23318;50.966;5.284;2024-03-17T13:08:02;18.00;99.20
37460;DHT22;23318;50.966;5.284;2024-03-17T13:10:29;17.80;99.40
37460;DHT22;23318;50.966;5.284;2024-03-17T13:13:08;17.80;99.60
37460;DHT22;23318;50.966;5.284;2024-03-17T13:15:34;18.20;99.40
37460;DHT22;23318;50.966;5.284;2024-03-17T13:18:04;18.40;99.60
37460;DHT22;23318;50.966;5.284;2024-03-17T13:20:30;18.90;98.80
37460;DHT22;23318;50.966;5.284;2024-03-17T13:22:56;19.80;98.30
37460;DHT22;23318;50.966;5.284;2024-03-17T13:25:24;20.30;98.00
37460;DHT22;23318;50.966;5.284;2024-03-17T13:27:53;21.80;96.80
37460;DHT22;23318;50.966;5.284;2024-03-17T13:30:23;21.20;96.80
37460;DHT22;23318;50.966;5.284;2024-03-17T13:32:53;20.80;96.70
37460;DHT22;23318;50.966;5.284;2024-03-17T13:35:28;21.30;96.70
37460;DHT22;23318;50.966;5.284;2024-03-17T13:37:55;21.30;96.30
37460;DHT22;23318;50.966;5.284;2024-03-17T13:40:23;20.80;96.90
37460;DHT22;23318;50.966;5.284;2024-03-17T13:42:50;21.30;96.40
37460;DHT22;23318;50.966;5.284;2024-03-17T13:45:17;21.10;96.50
37460;DHT22;23318;50.966;5.284;2024-03-17T13:48:02;20.80;97.10
37460;DHT22;23318;50.966;5.284;2024-03-17T13:50:31;21.30;96.60
37460;DHT22;23318;50.966;5.284;2024-03-17T13:52:57;23.10;95.40
37460;DHT22;23318;50.966;5.284;2024-03-17T13:55:24;22.80;94.60
37460;DHT22;23318;50.966;5.284;2024-03-17T13:57:52;22.50;94.80
37460;DHT22;23318;50.966;5.284;2024-03-17T14:00:21;24.00;94.20
37460;DHT22;23318;50.966;5.284;2024-03-17T14:02:48;24.00;94.10
37460;DHT22;23318;50.966;5.284;2024-03-17T14:05:15;22.80;94.00
37460;DHT22;23318;50.966;5.284;2024-03-17T14:07:41;21.90;94.40
37460;DHT22;23318;50.966;5.284;2024-03-17T14:10:09;21.20;94.70
37460;DHT22;23318;50.966;5.284;2024-03-17T14:12:38;20.10;95.90
37460;DHT22;23318;50.966;5.284;2024-03-17T14:15:08;20.10;96.00
37460;DHT22;23318;50.966;5.284;2024-03-17T14:17:40;19.50;95.90
37460;DHT22;23318;50.966;5.284;2024-03-17T14:20:07;19.30;96.10
37460;DHT22;23318;50.966;5.284;2024-03-17T14:22:40;18.70;96.60
37460;DHT22;23318;50.966;5.284;2024-03-17T14:25:08;18.70;97.10
37460;DHT22;23318;50.966;5.284;2024-03-17T14:27:36;18.90;97.80
37460;DHT22;23318;50.966;5.284;2024-03-17T14:30:02;18.30;97.70
37460;DHT22;23318;50.966;5.284;2024-03-17T14:32:29;18.40;97.60
37460;DHT22;23318;50.966;5.284;2024-03-17T14:34:55;18.30;97.70
37460;DHT22;23318;50.966;5.284;2024-03-17T14:37:21;18.30;97.50
37460;DHT22;23318;50.966;5.284;2024-03-17T14:39:48;18.30;97.80
37460;DHT22;23318;50.966;5.284;2024-03-17T14:42:15;18.50;97.70
37460;DHT22;23318;50.966;5.284;2024-03-17T14:44:40;17.90;97.70
37460;DHT22;23318;50.966;5.284;2024-03-17T14:47:06;17.80;98.40
37460;DHT22;23318;50.966;5.284;2024-03-17T14:49:33;17.70;97.90
37460;DHT22;23318;50.966;5.284;2024-03-17T14:51:59;17.70;98.40
37460;DHT22;23318;50.966;5.284;2024-03-17T14:54:24;17.90;98.70
37460;DHT22;23318;50.966;5.284;2024-03-17T14:56:51;17.80;98.50
37460;DHT22;23318;50.966;5.284;2024-03-17T14:59:19;17.90;99.00
37460;DHT22;23318;50.966;5.284;2024-03-17T15:01:46;18.00;99.00
37460;DHT22;23318;50.966;5.284;2024-03-17T15:04:12;18.20;99.20
37460;DHT22;23318;50.966;5.284;2024-03-17T15:06:39;17.60;98.90
37460;DHT22;23318;50.966;5.284;2024-03-17T15:09:04;17.70;99.20
37460;DHT22;23318;50.966;5.284;2024-03-17T15:11:30;17.30;99.30
37460;DHT22;23318;50.966;5.284;2024-03-17T15:13:56;17.40;99.10
37460;DHT22;23318;50.966;5.284;2024-03-17T15:16:22;17.40;99.20
37460;DHT22;23318;50.966;5.284;2024-03-17T15:18:48;17.80;99.20
37460;DHT22;23318;50.966;5.284;2024-03-17T15:21:14;17.80;99.00
37460;DHT22;23318;50.966;5.284;2024-03-17T15:23:40;17.60;99.30
37460;DHT22;23318;50.966;5.284;2024-03-17T15:26:07;17.40;99.40
37460;DHT22;23318;50.966;5.284;2024-03-17T15:28:38;17.30;99.40
37460;DHT22;23318;50.966;5.284;2024-03-17T15:31:11;17.30;99.00
37460;DHT22;23318;50.966;5.284;2024-03-17T15:33:38;17.20;99.40
37460;DHT22;23318;50.966;5.284;2024-03-17T15:36:07;17.10;99.60
37460;DHT22;23318;50.966;5.284;2024-03-17T15:38:34;16.90;99.70
37460;DHT22;23318;50.966;5.284;2024-03-17T15:41:04;16.80;99.80
37460;DHT22;23318;50.966;5.284;2024-03-17T15:43:32;16.90;99.60
37460;DHT22;23318;50.966;5.284;2024-03-17T15:45:59;16.90;99.80
37460;DHT22;23318;50.966;5.284;2024-03-17T15:48:25;16.50;99.90
37460;DHT22;23318;50.966;5.284;2024-03-17T15:50:58;16.70;99.90
37460;DHT22;23318;50.966;5.284;2024-03-17T15:53:24;16.80;99.90
37460;DHT22;23318;50.966;5.284;2024-03-17T15:56:02;16.80;99.90
37460;DHT22;23318;50.966;5.284;2024-03-17T15:58:29;16.90;99.90
37460;DHT22;23318;50.966;5.284;2024-03-17T16:00:55;16.70;99.90
37460;DHT22;23318;50.966;5.284;2024-03-17T16:03:23;16.40;99.90
37460;DHT22;23318;50.966;5.284;2024-03-17T16:05:54;16.30;99.90
37460;DHT22;23318;50.966;5.284;2024-03-17T16:08:22;16.10;99.90
37460;DHT22;23318;50.966;5.284;2024-03-17T16:10:59;16.00;99.90
37460;DHT22;23318;50.966;5.284;2024-03-17T16:13:27;16.00;99.90
37460;DHT22;23318;50.966;5.284;2024-03-17T16:15:54;16.30;99.90
37460;DHT22;23318;50.966;5.284;2024-03-17T16:18:21;16.60;99.90
37460;DHT22;23318;50.966;5.284;2024-03-17T16:21:23;16.70;99.90